sensor_id;sensor_type;location;lat;lon;timestamp;P1;durP1;ratioP1;P2;durP2;ratioP2
14268;SDS011;7218;51.480;7.006;2023-03-14T00:01:24;7.20;;;1.88;;
14268;SDS011;7218;51.480;7.006;2023-03-14T00:03:51;7.03;;;1.92;;
14268;SDS011;7218;51.480;7.006;2023-03-14T00:06:17;4.95;;;1.80;;
14268;SDS011;7218;51.480;7.006;2023-03-14T00:08:44;6.32;;;1.73;;
14268;SDS011;7218;51.480;7.006;2023-03-14T00:11:12;4.32;;;1.63;;
14268;SDS011;7218;51.480;7.006;2023-03-14T00:13:42;5.40;;;1.60;;
14268;SDS011;7218;51.480;7.006;2023-03-14T00:16:10;4.82;;;1.60;;
14268;SDS011;7218;51.480;7.006;2023-03-14T00:18:38;5.97;;;1.60;;
14268;SDS011;7218;51.480;7.006;2023-03-14T00:21:05;2.92;;;1.50;;
14268;SDS011;7218;51.480;7.006;2023-03-14T00:23:34;4.07;;;1.83;;
14268;SDS011;7218;51.480;7.006;2023-03-14T00:26:02;4.43;;;1.58;;
14268;SDS011;7218;51.480;7.006;2023-03-14T00:28:30;5.03;;;1.48;;
14268;SDS011;7218;51.480;7.006;2023-03-14T00:30:58;6.20;;;2.13;;
14268;SDS011;7218;51.480;7.006;2023-03-14T00:33:27;5.30;;;1.90;;
14268;SDS011;7218;51.480;7.006;2023-03-14T00:35:54;5.40;;;1.70;;
14268;SDS011;7218;51.480;7.006;2023-03-14T00:38:22;4.63;;;1.48;;
14268;SDS011;7218;51.480;7.006;2023-03-14T00:40:49;4.65;;;1.65;;
14268;SDS011;7218;51.480;7.006;2023-03-14T00:43:16;7.30;;;1.88;;
14268;SDS011;7218;51.480;7.006;2023-03-14T00:45:42;8.70;;;1.92;;
14268;SDS011;7218;51.480;7.006;2023-03-14T00:48:10;7.38;;;1.80;;
14268;SDS011;7218;51.480;7.006;2023-03-14T00:50:38;8.00;;;2.00;;
14268;SDS011;7218;51.480;7.006;2023-03-14T00:53:04;9.57;;;1.80;;
14268;SDS011;7218;51.480;7.006;2023-03-14T00:55:31;6.68;;;1.90;;
14268;SDS011;7218;51.480;7.006;2023-03-14T00:57:57;7.72;;;2.05;;
14268;SDS011;7218;51.480;7.006;2023-03-14T01:00:24;7.78;;;1.77;;
14268;SDS011;7218;51.480;7.006;2023-03-14T01:02:50;4.10;;;1.48;;
14268;SDS011;7218;51.480;7.006;2023-03-14T01:05:18;4.57;;;1.20;;
14268;SDS011;7218;51.480;7.006;2023-03-14T01:07:45;4.97;;;1.35;;
14268;SDS011;7218;51.480;7.006;2023-03-14T01:10:11;3.10;;;1.08;;
14268;SDS011;7218;51.480;7.006;2023-03-14T01:12:38;3.97;;;1.00;;
14268;SDS011;7218;51.480;7.006;2023-03-14T01:15:05;5.10;;;1.20;;
14268;SDS011;7218;51.480;7.006;2023-03-14T01:17:32;5.75;;;1.30;;
14268;SDS011;7218;51.480;7.006;2023-03-14T01:19:58;2.00;;;1.00;;
14268;SDS011;7218;51.480;7.006;2023-03-14T01:22:27;3.40;;;0.90;;
14268;SDS011;7218;51.480;7.006;2023-03-14T01:24:53;2.15;;;0.80;;
14268;SDS011;7218;51.480;7.006;2023-03-14T01:27:19;4.13;;;0.95;;
14268;SDS011;7218;51.480;7.006;2023-03-14T01:29:46;4.15;;;1.17;;
14268;SDS011;7218;51.480;7.006;2023-03-14T01:32:13;2.30;;;0.88;;
14268;SDS011;7218;51.480;7.006;2023-03-14T01:34:39;3.53;;;1.10;;
14268;SDS011;7218;51.480;7.006;2023-03-14T01:37:06;4.13;;;1.10;;
14268;SDS011;7218;51.480;7.006;2023-03-14T01:39:34;4.80;;;1.35;;
14268;SDS011;7218;51.480;7.006;2023-03-14T01:42:01;6.65;;;1.42;;
14268;SDS011;7218;51.480;7.006;2023-03-14T01:44:27;3.45;;;1.27;;
14268;SDS011;7218;51.480;7.006;2023-03-14T01:46:54;5.28;;;1.15;;
14268;SDS011;7218;51.480;7.006;2023-03-14T01:49:22;4.93;;;1.30;;
14268;SDS011;7218;51.480;7.006;2023-03-14T01:51:53;3.90;;;1.35;;
14268;SDS011;7218;51.480;7.006;2023-03-14T01:54:24;6.68;;;1.77;;
14268;SDS011;7218;51.480;7.006;2023-03-14T01:56:56;5.45;;;1.38;;
14268;SDS011;7218;51.480;7.006;2023-03-14T01:59:26;6.95;;;1.60;;
14268;SDS011;7218;51.480;7.006;2023-03-14T02:01:55;5.95;;;1.50;;
14268;SDS011;7218;51.480;7.006;2023-03-14T02:04:22;3.90;;;1.25;;
14268;SDS011;7218;51.480;7.006;2023-03-14T02:06:51;4.47;;;1.33;;
14268;SDS011;7218;51.480;7.006;2023-03-14T02:09:21;7.68;;;1.60;;
14268;SDS011;7218;51.480;7.006;2023-03-14T02:11:48;7.63;;;1.42;;
14268;SDS011;7218;51.480;7.006;2023-03-14T02:14:19;5.47;;;1.55;;
14268;SDS011;7218;51.480;7.006;2023-03-14T02:16:55;4.50;;;1.45;;
14268;SDS011;7218;51.480;7.006;2023-03-14T02:19:25;5.88;;;1.30;;
14268;SDS011;7218;51.480;7.006;2023-03-14T02:22:02;4.63;;;1.48;;
14268;SDS011;7218;51.480;7.006;2023-03-14T02:24:34;5.38;;;1.23;;
14268;SDS011;7218;51.480;7.006;2023-03-14T02:27:11;3.97;;;1.52;;
14268;SDS011;7218;51.480;7.006;2023-03-14T02:29:39;6.40;;;1.77;;
14268;SDS011;7218;51.480;7.006;2023-03-14T02:32:11;4.60;;;1.20;;
14268;SDS011;7218;51.480;7.006;2023-03-14T02:34:38;4.85;;;1.50;;
14268;SDS011;7218;51.480;7.006;2023-03-14T02:37:08;9.40;;;1.23;;
14268;SDS011;7218;51.480;7.006;2023-03-14T02:39:36;6.50;;;1.50;;
14268;SDS011;7218;51.480;7.006;2023-03-14T02:42:05;5.90;;;1.55;;
14268;SDS011;7218;51.480;7.006;2023-03-14T02:44:33;8.68;;;1.83;;
14268;SDS011;7218;51.480;7.006;2023-03-14T02:47:00;4.53;;;1.38;;
14268;SDS011;7218;51.480;7.006;2023-03-14T02:49:27;4.85;;;1.40;;
14268;SDS011;7218;51.480;7.006;2023-03-14T02:51:57;9.70;;;1.75;;
14268;SDS011;7218;51.480;7.006;2023-03-14T02:54:24;5.63;;;2.00;;
14268;SDS011;7218;51.480;7.006;2023-03-14T02:56:50;6.18;;;1.65;;
14268;SDS011;7218;51.480;7.006;2023-03-14T02:59:17;7.93;;;1.75;;
14268;SDS011;7218;51.480;7.006;2023-03-14T03:01:44;5.35;;;1.67;;
14268;SDS011;7218;51.480;7.006;2023-03-14T03:04:11;6.10;;;1.50;;
14268;SDS011;7218;51.480;7.006;2023-03-14T03:06:37;7.15;;;1.50;;
14268;SDS011;7218;51.480;7.006;2023-03-14T03:09:04;10.05;;;1.85;;
14268;SDS011;7218;51.480;7.006;2023-03-14T03:11:30;5.32;;;1.60;;
14268;SDS011;7218;51.480;7.006;2023-03-14T03:13:57;6.60;;;1.55;;
14268;SDS011;7218;51.480;7.006;2023-03-14T03:16:24;5.13;;;1.63;;
14268;SDS011;7218;51.480;7.006;2023-03-14T03:18:52;7.07;;;1.80;;
14268;SDS011;7218;51.480;7.006;2023-03-14T03:21:18;5.30;;;1.33;;
14268;SDS011;7218;51.480;7.006;2023-03-14T03:23:48;6.53;;;1.27;;
14268;SDS011;7218;51.480;7.006;2023-03-14T03:26:14;5.13;;;1.40;;
14268;SDS011;7218;51.480;7.006;2023-03-14T03:28:41;5.18;;;1.50;;
14268;SDS011;7218;51.480;7.006;2023-03-14T03:31:08;6.93;;;2.05;;
14268;SDS011;7218;51.480;7.006;2023-03-14T03:33:35;7.00;;;1.85;;
14268;SDS011;7218;51.480;7.006;2023-03-14T03:36:03;5.40;;;1.50;;
14268;SDS011;7218;51.480;7.006;2023-03-14T03:38:30;5.47;;;1.30;;
14268;SDS011;7218;51.480;7.006;2023-03-14T03:40:57;8.05;;;1.85;;
14268;SDS011;7218;51.480;7.006;2023-03-14T03:43:23;8.40;;;1.85;;
14268;SDS011;7218;51.480;7.006;2023-03-14T03:45:50;5.55;;;1.70;;
14268;SDS011;7218;51.480;7.006;2023-03-14T03:48:16;6.97;;;1.83;;
14268;SDS011;7218;51.480;7.006;2023-03-14T03:50:45;4.82;;;1.80;;
14268;SDS011;7218;51.480;7.006;2023-03-14T03:53:13;4.93;;;1.98;;
14268;SDS011;7218;51.480;7.006;2023-03-14T03:55:40;6.40;;;1.48;;
14268;SDS011;7218;51.480;7.006;2023-03-14T03:58:08;9.52;;;1.80;;
14268;SDS011;7218;51.480;7.006;2023-03-14T04:00:34;5.90;;;1.80;;
14268;SDS011;7218;51.480;7.006;2023-03-14T04:03:01;8.68;;;1.98;;
14268;SDS011;7218;51.480;7.006;2023-03-14T04:05:27;4.75;;;1.80;;
14268;SDS011;7218;51.480;7.006;2023-03-14T04:07:54;5.05;;;1.60;;
14268;SDS011;7218;51.480;7.006;2023-03-14T04:10:21;8.13;;;1.48;;
14268;SDS011;7218;51.480;7.006;2023-03-14T04:12:48;4.03;;;1.60;;
14268;SDS011;7218;51.480;7.006;2023-03-14T04:15:14;7.93;;;1.80;;
14268;SDS011;7218;51.480;7.006;2023-03-14T04:17:41;6.82;;;1.80;;
14268;SDS011;7218;51.480;7.006;2023-03-14T04:20:08;5.82;;;1.38;;
14268;SDS011;7218;51.480;7.006;2023-03-14T04:22:36;6.95;;;1.73;;
14268;SDS011;7218;51.480;7.006;2023-03-14T04:25:02;7.13;;;1.55;;
14268;SDS011;7218;51.480;7.006;2023-03-14T04:27:31;4.43;;;1.30;;
14268;SDS011;7218;51.480;7.006;2023-03-14T04:29:57;4.65;;;1.50;;
14268;SDS011;7218;51.480;7.006;2023-03-14T04:32:24;3.42;;;1.02;;
14268;SDS011;7218;51.480;7.006;2023-03-14T04:34:50;2.75;;;0.95;;
14268;SDS011;7218;51.480;7.006;2023-03-14T04:37:16;1.50;;;0.77;;
14268;SDS011;7218;51.480;7.006;2023-03-14T04:39:43;1.58;;;0.75;;
14268;SDS011;7218;51.480;7.006;2023-03-14T04:42:09;1.52;;;0.65;;
14268;SDS011;7218;51.480;7.006;2023-03-14T04:44:37;2.58;;;0.65;;
14268;SDS011;7218;51.480;7.006;2023-03-14T04:47:04;2.88;;;0.95;;
14268;SDS011;7218;51.480;7.006;2023-03-14T04:49:30;1.95;;;0.70;;
14268;SDS011;7218;51.480;7.006;2023-03-14T04:51:57;6.78;;;1.00;;
14268;SDS011;7218;51.480;7.006;2023-03-14T04:54:23;1.20;;;0.57;;
14268;SDS011;7218;51.480;7.006;2023-03-14T04:56:50;1.83;;;0.63;;
14268;SDS011;7218;51.480;7.006;2023-03-14T04:59:16;0.85;;;0.40;;
14268;SDS011;7218;51.480;7.006;2023-03-14T05:01:44;2.13;;;0.63;;
14268;SDS011;7218;51.480;7.006;2023-03-14T05:04:10;2.22;;;0.50;;
14268;SDS011;7218;51.480;7.006;2023-03-14T05:06:37;1.10;;;0.57;;
14268;SDS011;7218;51.480;7.006;2023-03-14T05:09:04;2.75;;;0.47;;
14268;SDS011;7218;51.480;7.006;2023-03-14T05:11:31;1.58;;;0.52;;
14268;SDS011;7218;51.480;7.006;2023-03-14T05:13:57;1.60;;;0.40;;
14268;SDS011;7218;51.480;7.006;2023-03-14T05:16:24;3.17;;;0.73;;
14268;SDS011;7218;51.480;7.006;2023-03-14T05:18:51;1.95;;;0.70;;
14268;SDS011;7218;51.480;7.006;2023-03-14T05:21:18;0.63;;;0.63;;
14268;SDS011;7218;51.480;7.006;2023-03-14T05:23:44;1.75;;;0.60;;
14268;SDS011;7218;51.480;7.006;2023-03-14T05:26:11;1.30;;;0.50;;
14268;SDS011;7218;51.480;7.006;2023-03-14T05:28:37;1.60;;;0.73;;
14268;SDS011;7218;51.480;7.006;2023-03-14T05:31:18;1.30;;;0.52;;
14268;SDS011;7218;51.480;7.006;2023-03-14T05:33:44;2.00;;;0.70;;
14268;SDS011;7218;51.480;7.006;2023-03-14T05:36:12;0.75;;;0.60;;
14268;SDS011;7218;51.480;7.006;2023-03-14T05:38:39;2.17;;;0.90;;
14268;SDS011;7218;51.480;7.006;2023-03-14T05:41:05;2.38;;;0.60;;
14268;SDS011;7218;51.480;7.006;2023-03-14T05:43:32;0.68;;;0.50;;
14268;SDS011;7218;51.480;7.006;2023-03-14T05:45:59;0.52;;;0.52;;
14268;SDS011;7218;51.480;7.006;2023-03-14T05:48:25;2.13;;;0.80;;
14268;SDS011;7218;51.480;7.006;2023-03-14T05:50:54;1.08;;;0.52;;
14268;SDS011;7218;51.480;7.006;2023-03-14T05:53:22;3.45;;;0.98;;
14268;SDS011;7218;51.480;7.006;2023-03-14T05:55:50;1.45;;;1.10;;
14268;SDS011;7218;51.480;7.006;2023-03-14T05:58:17;1.83;;;1.20;;
14268;SDS011;7218;51.480;7.006;2023-03-14T06:00:44;2.13;;;1.25;;
14268;SDS011;7218;51.480;7.006;2023-03-14T06:03:10;2.45;;;1.50;;
14268;SDS011;7218;51.480;7.006;2023-03-14T06:05:37;2.40;;;1.65;;
14268;SDS011;7218;51.480;7.006;2023-03-14T06:08:03;3.22;;;2.22;;
14268;SDS011;7218;51.480;7.006;2023-03-14T06:10:32;3.97;;;2.53;;
14268;SDS011;7218;51.480;7.006;2023-03-14T06:12:58;4.25;;;2.58;;
14268;SDS011;7218;51.480;7.006;2023-03-14T06:15:25;3.92;;;2.53;;
14268;SDS011;7218;51.480;7.006;2023-03-14T06:17:53;4.65;;;2.78;;
14268;SDS011;7218;51.480;7.006;2023-03-14T06:20:20;6.80;;;2.90;;
14268;SDS011;7218;51.480;7.006;2023-03-14T06:22:47;4.72;;;2.60;;
14268;SDS011;7218;51.480;7.006;2023-03-14T06:25:13;6.07;;;2.70;;
14268;SDS011;7218;51.480;7.006;2023-03-14T06:27:41;6.40;;;2.38;;
14268;SDS011;7218;51.480;7.006;2023-03-14T06:30:08;3.33;;;2.20;;
14268;SDS011;7218;51.480;7.006;2023-03-14T06:32:35;2.55;;;1.98;;
14268;SDS011;7218;51.480;7.006;2023-03-14T06:35:02;3.63;;;2.00;;
14268;SDS011;7218;51.480;7.006;2023-03-14T06:37:28;4.97;;;1.73;;
14268;SDS011;7218;51.480;7.006;2023-03-14T06:39:56;3.67;;;2.20;;
14268;SDS011;7218;51.480;7.006;2023-03-14T06:42:22;3.88;;;1.50;;
14268;SDS011;7218;51.480;7.006;2023-03-14T06:44:50;3.15;;;1.45;;
14268;SDS011;7218;51.480;7.006;2023-03-14T06:47:16;2.78;;;1.40;;
14268;SDS011;7218;51.480;7.006;2023-03-14T06:49:43;3.75;;;1.20;;
14268;SDS011;7218;51.480;7.006;2023-03-14T06:52:09;1.92;;;1.20;;
14268;SDS011;7218;51.480;7.006;2023-03-14T06:54:36;1.77;;;0.65;;
14268;SDS011;7218;51.480;7.006;2023-03-14T06:57:02;1.45;;;0.80;;
14268;SDS011;7218;51.480;7.006;2023-03-14T06:59:29;1.02;;;0.68;;
14268;SDS011;7218;51.480;7.006;2023-03-14T07:01:57;1.08;;;0.70;;
14268;SDS011;7218;51.480;7.006;2023-03-14T07:04:23;1.90;;;0.52;;
14268;SDS011;7218;51.480;7.006;2023-03-14T07:06:50;0.63;;;0.50;;
14268;SDS011;7218;51.480;7.006;2023-03-14T07:09:16;1.33;;;0.60;;
14268;SDS011;7218;51.480;7.006;2023-03-14T07:11:43;1.90;;;0.80;;
14268;SDS011;7218;51.480;7.006;2023-03-14T07:14:09;2.97;;;1.40;;
14268;SDS011;7218;51.480;7.006;2023-03-14T07:16:36;1.23;;;0.60;;
14268;SDS011;7218;51.480;7.006;2023-03-14T07:19:04;1.65;;;0.57;;
14268;SDS011;7218;51.480;7.006;2023-03-14T07:21:31;2.25;;;0.70;;
14268;SDS011;7218;51.480;7.006;2023-03-14T07:23:59;3.72;;;0.60;;
14268;SDS011;7218;51.480;7.006;2023-03-14T07:26:26;2.20;;;0.70;;
14268;SDS011;7218;51.480;7.006;2023-03-14T07:28:52;1.30;;;0.70;;
14268;SDS011;7218;51.480;7.006;2023-03-14T07:31:19;1.35;;;0.50;;
14268;SDS011;7218;51.480;7.006;2023-03-14T07:33:46;1.48;;;0.60;;
14268;SDS011;7218;51.480;7.006;2023-03-14T07:36:13;1.25;;;0.50;;
14268;SDS011;7218;51.480;7.006;2023-03-14T07:38:40;0.75;;;0.50;;
14268;SDS011;7218;51.480;7.006;2023-03-14T07:41:07;1.38;;;0.60;;
14268;SDS011;7218;51.480;7.006;2023-03-14T07:43:33;1.30;;;0.50;;
14268;SDS011;7218;51.480;7.006;2023-03-14T07:46:00;1.20;;;0.52;;
14268;SDS011;7218;51.480;7.006;2023-03-14T07:48:27;1.60;;;0.65;;
14268;SDS011;7218;51.480;7.006;2023-03-14T07:50:54;1.10;;;0.50;;
14268;SDS011;7218;51.480;7.006;2023-03-14T07:53:22;1.00;;;0.60;;
14268;SDS011;7218;51.480;7.006;2023-03-14T07:55:50;0.68;;;0.60;;
14268;SDS011;7218;51.480;7.006;2023-03-14T07:58:17;1.83;;;0.60;;
14268;SDS011;7218;51.480;7.006;2023-03-14T08:00:44;1.38;;;0.70;;
14268;SDS011;7218;51.480;7.006;2023-03-14T08:03:10;0.60;;;0.60;;
14268;SDS011;7218;51.480;7.006;2023-03-14T08:05:37;1.38;;;0.80;;
14268;SDS011;7218;51.480;7.006;2023-03-14T08:08:05;1.75;;;0.82;;
14268;SDS011;7218;51.480;7.006;2023-03-14T08:10:33;1.13;;;0.70;;
14268;SDS011;7218;51.480;7.006;2023-03-14T08:13:00;1.75;;;1.02;;
14268;SDS011;7218;51.480;7.006;2023-03-14T08:15:28;1.42;;;0.80;;
14268;SDS011;7218;51.480;7.006;2023-03-14T08:17:55;1.20;;;1.10;;
14268;SDS011;7218;51.480;7.006;2023-03-14T08:20:22;1.25;;;1.00;;
14268;SDS011;7218;51.480;7.006;2023-03-14T08:22:51;1.38;;;1.08;;
14268;SDS011;7218;51.480;7.006;2023-03-14T08:25:18;1.05;;;1.00;;
14268;SDS011;7218;51.480;7.006;2023-03-14T08:27:46;0.90;;;0.90;;
14268;SDS011;7218;51.480;7.006;2023-03-14T08:30:13;0.93;;;0.93;;
14268;SDS011;7218;51.480;7.006;2023-03-14T08:32:41;0.95;;;0.95;;
14268;SDS011;7218;51.480;7.006;2023-03-14T08:35:08;1.75;;;1.15;;
14268;SDS011;7218;51.480;7.006;2023-03-14T08:37:35;1.27;;;1.17;;
14268;SDS011;7218;51.480;7.006;2023-03-14T08:40:02;1.17;;;1.08;;
14268;SDS011;7218;51.480;7.006;2023-03-14T08:42:31;1.30;;;1.20;;
14268;SDS011;7218;51.480;7.006;2023-03-14T08:44:59;2.10;;;1.30;;
14268;SDS011;7218;51.480;7.006;2023-03-14T08:47:26;1.50;;;1.40;;
14268;SDS011;7218;51.480;7.006;2023-03-14T08:49:53;1.20;;;1.10;;
14268;SDS011;7218;51.480;7.006;2023-03-14T08:52:27;1.30;;;1.20;;
14268;SDS011;7218;51.480;7.006;2023-03-14T08:54:55;2.22;;;1.33;;
14268;SDS011;7218;51.480;7.006;2023-03-14T08:57:22;1.75;;;1.45;;
14268;SDS011;7218;51.480;7.006;2023-03-14T08:59:52;2.00;;;1.70;;
14268;SDS011;7218;51.480;7.006;2023-03-14T09:02:20;1.67;;;1.55;;
14268;SDS011;7218;51.480;7.006;2023-03-14T09:04:47;1.40;;;1.30;;
14268;SDS011;7218;51.480;7.006;2023-03-14T09:07:13;1.55;;;1.45;;
14268;SDS011;7218;51.480;7.006;2023-03-14T09:09:39;1.88;;;1.70;;
14268;SDS011;7218;51.480;7.006;2023-03-14T09:12:06;3.00;;;1.80;;
14268;SDS011;7218;51.480;7.006;2023-03-14T09:14:33;2.60;;;1.70;;
14268;SDS011;7218;51.480;7.006;2023-03-14T09:16:59;1.60;;;1.40;;
14268;SDS011;7218;51.480;7.006;2023-03-14T09:19:27;2.30;;;1.08;;
14268;SDS011;7218;51.480;7.006;2023-03-14T09:21:54;2.10;;;1.45;;
14268;SDS011;7218;51.480;7.006;2023-03-14T09:24:20;1.42;;;1.27;;
14268;SDS011;7218;51.480;7.006;2023-03-14T09:26:47;1.70;;;0.80;;
14268;SDS011;7218;51.480;7.006;2023-03-14T09:29:13;0.90;;;0.70;;
14268;SDS011;7218;51.480;7.006;2023-03-14T09:31:40;1.55;;;0.60;;
14268;SDS011;7218;51.480;7.006;2023-03-14T09:34:06;0.88;;;0.50;;
14268;SDS011;7218;51.480;7.006;2023-03-14T09:36:34;1.00;;;0.65;;
14268;SDS011;7218;51.480;7.006;2023-03-14T09:39:03;1.63;;;0.80;;
14268;SDS011;7218;51.480;7.006;2023-03-14T09:41:30;0.93;;;0.80;;
14268;SDS011;7218;51.480;7.006;2023-03-14T09:44:00;1.65;;;0.90;;
14268;SDS011;7218;51.480;7.006;2023-03-14T09:46:30;2.63;;;1.00;;
14268;SDS011;7218;51.480;7.006;2023-03-14T09:49:00;1.65;;;1.00;;
14268;SDS011;7218;51.480;7.006;2023-03-14T09:51:27;2.30;;;1.17;;
14268;SDS011;7218;51.480;7.006;2023-03-14T09:53:56;0.90;;;0.90;;
14268;SDS011;7218;51.480;7.006;2023-03-14T09:56:23;1.02;;;0.98;;
14268;SDS011;7218;51.480;7.006;2023-03-14T09:58:54;1.85;;;1.00;;
14268;SDS011;7218;51.480;7.006;2023-03-14T10:01:25;2.17;;;1.10;;
14268;SDS011;7218;51.480;7.006;2023-03-14T10:03:53;1.88;;;1.25;;
14268;SDS011;7218;51.480;7.006;2023-03-14T10:06:22;1.90;;;1.20;;
14268;SDS011;7218;51.480;7.006;2023-03-14T10:08:50;1.10;;;1.00;;
14268;SDS011;7218;51.480;7.006;2023-03-14T10:11:19;1.20;;;1.10;;
14268;SDS011;7218;51.480;7.006;2023-03-14T10:13:50;2.17;;;1.20;;
14268;SDS011;7218;51.480;7.006;2023-03-14T10:16:28;3.50;;;1.35;;
14268;SDS011;7218;51.480;7.006;2023-03-14T10:19:00;2.97;;;1.88;;
14268;SDS011;7218;51.480;7.006;2023-03-14T10:21:29;1.75;;;1.30;;
14268;SDS011;7218;51.480;7.006;2023-03-14T10:24:08;3.25;;;1.27;;
14268;SDS011;7218;51.480;7.006;2023-03-14T10:26:37;2.97;;;1.38;;
14268;SDS011;7218;51.480;7.006;2023-03-14T10:29:08;2.72;;;1.38;;
14268;SDS011;7218;51.480;7.006;2023-03-14T10:31:45;1.92;;;1.40;;
14268;SDS011;7218;51.480;7.006;2023-03-14T10:34:16;2.03;;;1.60;;
14268;SDS011;7218;51.480;7.006;2023-03-14T10:36:46;2.58;;;1.27;;
14268;SDS011;7218;51.480;7.006;2023-03-14T10:39:36;1.88;;;1.00;;
14268;SDS011;7218;51.480;7.006;2023-03-14T10:42:14;2.45;;;0.80;;
14268;SDS011;7218;51.480;7.006;2023-03-14T10:44:45;1.60;;;1.00;;
14268;SDS011;7218;51.480;7.006;2023-03-14T10:47:18;1.50;;;0.82;;
14268;SDS011;7218;51.480;7.006;2023-03-14T10:49:48;1.83;;;0.93;;
14268;SDS011;7218;51.480;7.006;2023-03-14T10:52:17;2.75;;;1.20;;
14268;SDS011;7218;51.480;7.006;2023-03-14T10:54:48;1.77;;;0.70;;
14268;SDS011;7218;51.480;7.006;2023-03-14T10:57:21;2.22;;;1.10;;
14268;SDS011;7218;51.480;7.006;2023-03-14T10:59:47;1.58;;;0.80;;
14268;SDS011;7218;51.480;7.006;2023-03-14T11:02:25;3.30;;;1.10;;
14268;SDS011;7218;51.480;7.006;2023-03-14T11:05:02;1.83;;;1.10;;
14268;SDS011;7218;51.480;7.006;2023-03-14T11:07:38;4.18;;;1.00;;
14268;SDS011;7218;51.480;7.006;2023-03-14T11:10:08;3.15;;;1.15;;
14268;SDS011;7218;51.480;7.006;2023-03-14T11:12:47;2.22;;;0.90;;
14268;SDS011;7218;51.480;7.006;2023-03-14T11:15:22;2.17;;;1.00;;
14268;SDS011;7218;51.480;7.006;2023-03-14T11:17:57;1.15;;;0.68;;
14268;SDS011;7218;51.480;7.006;2023-03-14T11:20:42;1.67;;;0.82;;
14268;SDS011;7218;51.480;7.006;2023-03-14T11:23:13;2.63;;;0.80;;
14268;SDS011;7218;51.480;7.006;2023-03-14T11:25:45;1.63;;;1.05;;
14268;SDS011;7218;51.480;7.006;2023-03-14T11:28:21;2.92;;;1.27;;
14268;SDS011;7218;51.480;7.006;2023-03-14T11:30:52;2.63;;;1.25;;
14268;SDS011;7218;51.480;7.006;2023-03-14T11:33:21;1.92;;;1.08;;
14268;SDS011;7218;51.480;7.006;2023-03-14T11:35:53;2.40;;;1.20;;
14268;SDS011;7218;51.480;7.006;2023-03-14T11:38:29;2.15;;;1.15;;
14268;SDS011;7218;51.480;7.006;2023-03-14T11:41:01;1.52;;;1.02;;
14268;SDS011;7218;51.480;7.006;2023-03-14T11:43:30;3.20;;;1.10;;
14268;SDS011;7218;51.480;7.006;2023-03-14T11:46:01;2.20;;;1.20;;
14268;SDS011;7218;51.480;7.006;2023-03-14T11:48:34;4.15;;;1.20;;
14268;SDS011;7218;51.480;7.006;2023-03-14T11:51:07;2.22;;;0.80;;
14268;SDS011;7218;51.480;7.006;2023-03-14T11:53:41;1.85;;;1.00;;
14268;SDS011;7218;51.480;7.006;2023-03-14T11:56:16;2.15;;;1.08;;
14268;SDS011;7218;51.480;7.006;2023-03-14T11:58:54;2.95;;;0.80;;
14268;SDS011;7218;51.480;7.006;2023-03-14T12:01:26;2.42;;;1.00;;
14268;SDS011;7218;51.480;7.006;2023-03-14T12:04:00;3.97;;;0.98;;
14268;SDS011;7218;51.480;7.006;2023-03-14T12:06:33;2.90;;;1.05;;
14268;SDS011;7218;51.480;7.006;2023-03-14T12:09:05;3.08;;;1.10;;
14268;SDS011;7218;51.480;7.006;2023-03-14T12:11:34;4.55;;;1.30;;
14268;SDS011;7218;51.480;7.006;2023-03-14T12:14:16;4.65;;;1.50;;
14268;SDS011;7218;51.480;7.006;2023-03-14T12:16:46;4.82;;;1.58;;
14268;SDS011;7218;51.480;7.006;2023-03-14T12:22:00;5.47;;;1.70;;
14268;SDS011;7218;51.480;7.006;2023-03-14T12:24:34;4.63;;;1.52;;
14268;SDS011;7218;51.480;7.006;2023-03-14T12:27:02;3.97;;;1.45;;
14268;SDS011;7218;51.480;7.006;2023-03-14T12:29:32;5.80;;;1.58;;
14268;SDS011;7218;51.480;7.006;2023-03-14T12:32:09;4.22;;;1.40;;
14268;SDS011;7218;51.480;7.006;2023-03-14T12:34:48;5.68;;;2.05;;
14268;SDS011;7218;51.480;7.006;2023-03-14T12:37:23;3.13;;;1.42;;
14268;SDS011;7218;51.480;7.006;2023-03-14T12:39:58;7.18;;;1.30;;
14268;SDS011;7218;51.480;7.006;2023-03-14T12:42:38;5.47;;;1.38;;
14268;SDS011;7218;51.480;7.006;2023-03-14T12:45:21;4.80;;;1.52;;
14268;SDS011;7218;51.480;7.006;2023-03-14T12:47:56;6.65;;;1.88;;
14268;SDS011;7218;51.480;7.006;2023-03-14T12:50:34;6.95;;;1.50;;
14268;SDS011;7218;51.480;7.006;2023-03-14T12:56:20;6.85;;;1.60;;
14268;SDS011;7218;51.480;7.006;2023-03-14T12:58:54;8.23;;;1.90;;
14268;SDS011;7218;51.480;7.006;2023-03-14T13:01:34;8.23;;;2.08;;
14268;SDS011;7218;51.480;7.006;2023-03-14T13:04:02;9.98;;;2.20;;
14268;SDS011;7218;51.480;7.006;2023-03-14T13:06:44;11.60;;;2.58;;
14268;SDS011;7218;51.480;7.006;2023-03-14T13:12:25;15.77;;;2.63;;
14268;SDS011;7218;51.480;7.006;2023-03-14T13:14:56;13.70;;;2.30;;
14268;SDS011;7218;51.480;7.006;2023-03-14T13:17:27;9.57;;;2.38;;
14268;SDS011;7218;51.480;7.006;2023-03-14T13:19:57;8.40;;;2.10;;
14268;SDS011;7218;51.480;7.006;2023-03-14T13:22:30;8.52;;;2.17;;
14268;SDS011;7218;51.480;7.006;2023-03-14T13:25:00;10.02;;;2.15;;
14268;SDS011;7218;51.480;7.006;2023-03-14T13:27:30;11.82;;;2.40;;
14268;SDS011;7218;51.480;7.006;2023-03-14T13:29:57;13.13;;;2.63;;
14268;SDS011;7218;51.480;7.006;2023-03-14T13:32:27;13.60;;;2.95;;
14268;SDS011;7218;51.480;7.006;2023-03-14T13:34:55;9.60;;;2.55;;
14268;SDS011;7218;51.480;7.006;2023-03-14T13:37:23;12.50;;;2.55;;
14268;SDS011;7218;51.480;7.006;2023-03-14T13:39:51;11.25;;;2.30;;
14268;SDS011;7218;51.480;7.006;2023-03-14T13:42:20;15.63;;;2.65;;
14268;SDS011;7218;51.480;7.006;2023-03-14T13:44:50;12.63;;;2.90;;
14268;SDS011;7218;51.480;7.006;2023-03-14T13:47:18;14.52;;;3.10;;
14268;SDS011;7218;51.480;7.006;2023-03-14T13:49:49;13.93;;;2.67;;
14268;SDS011;7218;51.480;7.006;2023-03-14T13:52:23;14.00;;;2.72;;
14268;SDS011;7218;51.480;7.006;2023-03-14T13:54:53;11.80;;;2.55;;
14268;SDS011;7218;51.480;7.006;2023-03-14T13:57:20;15.68;;;3.15;;
14268;SDS011;7218;51.480;7.006;2023-03-14T13:59:57;16.33;;;3.63;;
14268;SDS011;7218;51.480;7.006;2023-03-14T14:02:25;11.73;;;2.72;;
14268;SDS011;7218;51.480;7.006;2023-03-14T14:04:55;15.50;;;3.10;;
14268;SDS011;7218;51.480;7.006;2023-03-14T14:07:22;13.15;;;3.00;;
14268;SDS011;7218;51.480;7.006;2023-03-14T14:09:49;14.23;;;3.03;;
14268;SDS011;7218;51.480;7.006;2023-03-14T14:12:17;12.02;;;2.92;;
14268;SDS011;7218;51.480;7.006;2023-03-14T14:14:50;9.63;;;2.30;;
14268;SDS011;7218;51.480;7.006;2023-03-14T14:17:20;15.50;;;3.25;;
14268;SDS011;7218;51.480;7.006;2023-03-14T14:19:50;10.55;;;2.45;;
14268;SDS011;7218;51.480;7.006;2023-03-14T14:22:19;10.40;;;2.55;;
14268;SDS011;7218;51.480;7.006;2023-03-14T14:24:46;7.28;;;2.28;;
14268;SDS011;7218;51.480;7.006;2023-03-14T14:27:13;7.70;;;1.70;;
14268;SDS011;7218;51.480;7.006;2023-03-14T14:29:41;8.15;;;2.10;;
14268;SDS011;7218;51.480;7.006;2023-03-14T14:32:11;5.65;;;1.85;;
14268;SDS011;7218;51.480;7.006;2023-03-14T14:34:39;7.40;;;2.20;;
14268;SDS011;7218;51.480;7.006;2023-03-14T14:37:18;6.00;;;2.08;;
14268;SDS011;7218;51.480;7.006;2023-03-14T14:39:47;5.72;;;1.77;;
14268;SDS011;7218;51.480;7.006;2023-03-14T14:42:15;11.35;;;1.90;;
14268;SDS011;7218;51.480;7.006;2023-03-14T14:44:43;6.70;;;1.90;;
14268;SDS011;7218;51.480;7.006;2023-03-14T14:47:12;6.78;;;2.00;;
14268;SDS011;7218;51.480;7.006;2023-03-14T14:49:39;6.50;;;1.88;;
14268;SDS011;7218;51.480;7.006;2023-03-14T14:52:09;5.35;;;2.08;;
14268;SDS011;7218;51.480;7.006;2023-03-14T14:54:42;5.93;;;1.90;;
14268;SDS011;7218;51.480;7.006;2023-03-14T14:57:17;7.93;;;2.08;;
14268;SDS011;7218;51.480;7.006;2023-03-14T14:59:44;9.57;;;1.85;;
14268;SDS011;7218;51.480;7.006;2023-03-14T15:02:19;6.90;;;2.40;;
14268;SDS011;7218;51.480;7.006;2023-03-14T15:04:54;7.20;;;1.88;;
14268;SDS011;7218;51.480;7.006;2023-03-14T15:07:21;5.50;;;1.90;;
14268;SDS011;7218;51.480;7.006;2023-03-14T15:09:49;6.40;;;2.20;;
14268;SDS011;7218;51.480;7.006;2023-03-14T15:12:15;6.32;;;2.08;;
14268;SDS011;7218;51.480;7.006;2023-03-14T15:14:42;9.18;;;2.05;;
14268;SDS011;7218;51.480;7.006;2023-03-14T15:17:09;8.63;;;2.00;;
14268;SDS011;7218;51.480;7.006;2023-03-14T15:19:37;8.68;;;1.75;;